createdAt,value
2023-02-23T00:02:03.806Z,30.20
2023-02-23T00:04:31.994Z,34.07
2023-02-23T00:06:59.847Z,29.00
2023-02-23T00:09:35.098Z,34.70
2023-02-23T00:12:09.663Z,28.57
2023-02-23T00:14:38.716Z,27.10
2023-02-23T00:17:14.934Z,34.83
2023-02-23T00:19:43.547Z,38.07
2023-02-23T00:22:14.535Z,31.67
2023-02-23T00:24:42.789Z,33.10
2023-02-23T00:27:17.357Z,31.30
2023-02-23T00:29:49.215Z,34.20
2023-02-23T00:32:19.952Z,30.83
2023-02-23T00:34:49.888Z,30.93
2023-02-23T00:37:19.494Z,32.73
2023-02-23T00:39:47.394Z,30.60
2023-02-23T00:42:15.837Z,29.93
2023-02-23T00:44:43.655Z,34.00
2023-02-23T00:47:11.496Z,29.57
2023-02-23T00:49:39.348Z,31.50
2023-02-23T00:52:07.640Z,35.33
2023-02-23T00:54:35.522Z,29.30
2023-02-23T00:57:04.079Z,34.73
2023-02-23T00:59:31.952Z,34.20
2023-02-23T01:01:59.942Z,34.90
2023-02-23T01:04:27.872Z,27.73
2023-02-23T01:06:55.732Z,31.00
2023-02-23T01:09:28.357Z,32.47
2023-02-23T01:11:57.734Z,29.53
2023-02-23T01:14:26.129Z,28.03
2023-02-23T01:16:55.014Z,28.97
2023-02-23T01:19:22.926Z,24.30
2023-02-23T01:21:50.899Z,32.30
2023-02-23T01:24:18.727Z,28.33
2023-02-23T01:26:47.624Z,35.07
2023-02-23T01:29:17.941Z,35.80
2023-02-23T01:31:51.154Z,31.13
2023-02-23T01:34:21.652Z,29.07
2023-02-23T01:36:49.997Z,29.60
2023-02-23T01:39:20.709Z,29.93
2023-02-23T01:41:51.705Z,27.93
2023-02-23T01:44:19.399Z,30.00
2023-02-23T01:46:49.262Z,31.83
2023-02-23T01:49:25.643Z,27.50
2023-02-23T01:52:13.336Z,30.60
2023-02-23T01:54:53.553Z,29.10
2023-02-23T01:57:27.120Z,30.60
2023-02-23T01:59:55.661Z,31.93
2023-02-23T02:02:33.357Z,31.10
2023-02-23T02:05:04.567Z,30.80
2023-02-23T02:07:35.213Z,31.30
2023-02-23T02:10:13.690Z,30.23
2023-02-23T02:12:56.223Z,30.33
2023-02-23T02:15:30.073Z,33.37
2023-02-23T02:18:43.794Z,27.20
2023-02-23T02:21:51.884Z,31.70
2023-02-23T02:25:11.119Z,29.07
2023-02-23T02:28:22.249Z,34.00
2023-02-23T02:31:43.514Z,28.80
2023-02-23T02:35:18.890Z,31.70
2023-02-23T02:38:34.800Z,33.57
2023-02-23T02:41:20.579Z,28.60
2023-02-23T02:48:12.009Z,29.60
2023-02-23T02:51:04.383Z,27.10
2023-02-23T02:53:58.091Z,36.40
2023-02-23T02:56:27.162Z,31.73
2023-02-23T02:58:55.777Z,31.60
2023-02-23T03:01:42.190Z,28.50
2023-02-23T03:04:43.853Z,33.33
2023-02-23T03:07:45.935Z,38.63
2023-02-23T03:11:22.464Z,33.47
2023-02-23T03:15:04.961Z,26.40
2023-02-23T03:18:06.441Z,28.97
2023-02-23T03:20:52.660Z,35.63
2023-02-23T03:24:05.841Z,32.83
2023-02-23T03:27:06.306Z,28.23
2023-02-23T03:30:22.166Z,31.03
2023-02-23T03:33:23.929Z,33.97
2023-02-23T03:36:26.808Z,31.87
2023-02-23T03:39:59.665Z,31.80
2023-02-23T03:42:54.203Z,32.17
2023-02-23T03:45:44.285Z,36.47
2023-02-23T03:48:34.906Z,28.93
2023-02-23T03:51:27.636Z,36.10
2023-02-23T03:54:37.621Z,31.67
2023-02-23T03:57:30.998Z,36.70
2023-02-23T04:00:23.992Z,27.27
2023-02-23T04:03:13.117Z,33.10
2023-02-23T04:06:02.496Z,31.10
2023-02-23T04:08:56.669Z,28.83
2023-02-23T04:12:09.511Z,41.23
2023-02-23T04:14:59.699Z,28.83
2023-02-23T04:17:32.439Z,34.70
2023-02-23T04:20:00.677Z,30.30
2023-02-23T04:22:28.576Z,33.07
2023-02-23T04:24:56.817Z,30.27
2023-02-23T04:27:26.019Z,36.20
2023-02-23T04:29:53.918Z,32.40
2023-02-23T04:32:21.955Z,32.03
2023-02-23T04:34:50.384Z,32.97
2023-02-23T04:37:18.502Z,29.97
2023-02-23T04:39:49.677Z,35.40
2023-02-23T04:42:19.113Z,32.13
2023-02-23T04:44:47.400Z,39.13
2023-02-23T04:47:16.572Z,39.83
2023-02-23T04:49:44.811Z,32.30
2023-02-23T04:52:12.728Z,33.03
2023-02-23T04:54:41.760Z,33.93
2023-02-23T04:57:10.230Z,31.83
2023-02-23T04:59:38.197Z,37.93
2023-02-23T05:02:06.403Z,38.93
2023-02-23T05:04:35.380Z,42.23
2023-02-23T05:07:04.528Z,33.53
2023-02-23T05:09:33.339Z,37.93
2023-02-23T05:12:01.548Z,36.23
2023-02-23T05:14:30.157Z,32.97
2023-02-23T05:16:58.059Z,31.63
2023-02-23T05:19:27.311Z,38.80
2023-02-23T05:21:55.208Z,34.27
2023-02-23T05:24:23.037Z,36.43
2023-02-23T05:26:51.073Z,35.07
2023-02-23T05:29:19.238Z,33.30
2023-02-23T05:31:48.489Z,34.80
2023-02-23T05:34:16.891Z,38.00
2023-02-23T05:36:44.746Z,36.40
2023-02-23T05:39:12.625Z,47.23
2023-02-23T05:41:42.894Z,37.87
2023-02-23T05:44:10.778Z,34.17
2023-02-23T05:46:39.235Z,36.43
2023-02-23T05:49:07.232Z,36.53
2023-02-23T05:51:35.453Z,41.83
2023-02-23T05:54:03.423Z,44.97
2023-02-23T05:56:31.360Z,40.30
2023-02-23T05:58:59.788Z,38.80
2023-02-23T06:01:28.189Z,37.77
2023-02-23T06:03:56.629Z,37.53
2023-02-23T06:06:25.629Z,34.03
2023-02-23T06:08:54.614Z,37.80
2023-02-23T06:11:22.852Z,33.50
2023-02-23T06:13:50.824Z,36.37
2023-02-23T06:16:18.880Z,34.33
2023-02-23T06:18:47.053Z,33.77
2023-02-23T06:21:14.973Z,48.10
2023-02-23T06:23:43.029Z,37.87
2023-02-23T06:26:11.023Z,45.63
2023-02-23T06:28:38.887Z,46.00
2023-02-23T06:31:06.841Z,43.00
2023-02-23T06:33:35.128Z,37.97
2023-02-23T06:36:03.095Z,36.47
2023-02-23T06:38:31.020Z,42.60
2023-02-23T06:40:58.926Z,41.63
2023-02-23T06:43:26.918Z,38.63
2023-02-23T06:45:55.635Z,38.93
2023-02-23T06:48:23.469Z,34.60
2023-02-23T06:50:51.338Z,27.47
2023-02-23T06:53:21.411Z,36.57
2023-02-23T06:55:49.369Z,42.90
2023-02-23T06:58:17.684Z,36.50
2023-02-23T07:00:46.780Z,39.90
2023-02-23T07:03:15.481Z,47.27
2023-02-23T07:05:43.447Z,37.47
2023-02-23T07:08:11.327Z,32.30
2023-02-23T07:10:39.497Z,32.73
2023-02-23T07:13:07.335Z,31.13
2023-02-23T07:15:41.759Z,41.03
2023-02-23T07:18:09.708Z,36.60
2023-02-23T07:20:38.009Z,34.13
2023-02-23T07:23:05.885Z,51.20
2023-02-23T07:25:33.763Z,31.80
2023-02-23T07:28:02.720Z,42.13
2023-02-23T07:30:30.595Z,33.87
2023-02-23T07:32:58.488Z,36.67
2023-02-23T07:35:26.459Z,31.33
2023-02-23T07:37:55.750Z,35.57
2023-02-23T07:40:24.157Z,36.37
2023-02-23T07:42:52.551Z,38.20
2023-02-23T07:45:20.470Z,29.87
2023-02-23T07:47:48.843Z,37.97
2023-02-23T07:50:16.996Z,34.00
2023-02-23T07:52:45.007Z,33.90
2023-02-23T07:55:13.208Z,32.47
2023-02-23T07:57:44.475Z,39.00
2023-02-23T08:00:13.134Z,39.80
2023-02-23T08:02:41.048Z,34.90
2023-02-23T08:05:09.194Z,36.03
2023-02-23T08:07:37.611Z,32.63
2023-02-23T08:10:06.272Z,33.97
2023-02-23T08:12:34.682Z,39.27
2023-02-23T08:15:13.948Z,34.30
2023-02-23T08:17:41.922Z,31.03
2023-02-23T08:20:11.054Z,39.63
2023-02-23T08:22:49.475Z,32.30
2023-02-23T08:25:18.517Z,36.43
2023-02-23T08:27:47.191Z,33.50
2023-02-23T08:30:15.751Z,33.60
2023-02-23T08:32:43.661Z,33.27
2023-02-23T08:35:12.018Z,30.70
2023-02-23T08:37:41.866Z,35.50
2023-02-23T08:40:12.175Z,32.80
2023-02-23T08:42:43.421Z,36.43
2023-02-23T08:45:13.985Z,35.90
2023-02-23T08:47:42.233Z,37.00
2023-02-23T08:50:12.578Z,37.00
2023-02-23T08:52:41.992Z,36.90
2023-02-23T08:55:11.741Z,38.83
2023-02-23T08:57:39.859Z,34.87
2023-02-23T09:00:14.137Z,29.57
2023-02-23T09:02:48.113Z,33.00
2023-02-23T09:05:17.587Z,31.47
2023-02-23T09:07:48.998Z,35.03
2023-02-23T09:10:20.472Z,34.10
2023-02-23T09:12:51.343Z,34.23
2023-02-23T09:15:19.697Z,55.53
2023-02-23T09:17:48.150Z,30.33
2023-02-23T09:20:17.675Z,30.63
2023-02-23T09:22:48.724Z,30.13
2023-02-23T09:25:22.485Z,33.13
2023-02-23T09:27:59.615Z,28.57
2023-02-23T09:30:28.272Z,33.80
2023-02-23T09:32:56.445Z,33.77
2023-02-23T09:35:25.531Z,35.80
2023-02-23T09:37:56.274Z,29.20
2023-02-23T09:40:39.156Z,36.67
2023-02-23T09:43:33.719Z,32.73
2023-02-23T09:47:04.380Z,32.97
2023-02-23T09:49:39.568Z,36.43
2023-02-23T09:52:28.502Z,35.00
2023-02-23T09:54:58.084Z,37.37
2023-02-23T09:57:43.729Z,32.67
2023-02-23T10:00:27.720Z,34.77
2023-02-23T10:03:12.619Z,39.73
2023-02-23T10:05:54.286Z,30.23
2023-02-23T10:09:26.599Z,31.03
2023-02-23T10:12:33.749Z,31.70
2023-02-23T10:15:43.890Z,36.77
2023-02-23T10:18:47.411Z,32.60
2023-02-23T10:21:26.832Z,32.13
2023-02-23T10:24:32.978Z,30.83
2023-02-23T10:27:18.571Z,38.10
2023-02-23T10:30:00.650Z,32.07
2023-02-23T10:32:50.226Z,41.73
2023-02-23T10:35:24.557Z,33.43
2023-02-23T10:37:54.372Z,39.53
2023-02-23T10:40:29.096Z,34.97
2023-02-23T10:42:58.657Z,34.50
2023-02-23T10:45:29.792Z,33.10
2023-02-23T10:48:24.860Z,31.77
2023-02-23T10:51:02.718Z,30.53
2023-02-23T10:53:38.974Z,35.03
2023-02-23T10:56:14.594Z,37.87
2023-02-23T10:59:02.465Z,37.13
2023-02-23T11:02:00.478Z,37.60
2023-02-23T11:04:35.814Z,35.47
2023-02-23T11:07:29.640Z,33.40
2023-02-23T11:10:00.310Z,34.63
2023-02-23T11:12:41.845Z,36.73
2023-02-23T11:15:32.024Z,32.27
2023-02-23T11:18:07.569Z,35.00
2023-02-23T11:20:41.659Z,43.67
2023-02-23T11:23:34.318Z,38.73
2023-02-23T11:26:35.874Z,35.77
2023-02-23T11:29:28.278Z,36.50
2023-02-23T11:31:59.277Z,36.80
2023-02-23T11:34:35.429Z,41.43
2023-02-23T11:37:14.410Z,34.37
2023-02-23T11:40:04.037Z,41.27
2023-02-23T11:42:33.431Z,40.90
2023-02-23T11:45:20.848Z,42.03
2023-02-23T11:47:59.402Z,38.83
2023-02-23T11:50:36.407Z,41.57
2023-02-23T11:53:15.351Z,40.30
2023-02-23T11:55:55.676Z,36.40
2023-02-23T11:58:40.443Z,36.07
2023-02-23T12:01:14.187Z,36.27
2023-02-23T12:04:00.262Z,41.27
2023-02-23T12:06:41.853Z,36.60
2023-02-23T12:09:34.084Z,41.27
2023-02-23T12:12:18.922Z,34.50
2023-02-23T12:15:09.235Z,41.23
2023-02-23T12:17:50.092Z,43.03
2023-02-23T12:20:41.187Z,32.73
2023-02-23T12:23:28.420Z,32.67
2023-02-23T12:26:22.725Z,28.27
2023-02-23T12:29:06.245Z,34.50
2023-02-23T12:32:08.969Z,32.27
2023-02-23T12:35:06.313Z,45.63
2023-02-23T12:37:58.581Z,33.60
2023-02-23T12:40:36.636Z,37.97
2023-02-23T12:43:37.604Z,34.63
2023-02-23T12:46:22.106Z,31.20
2023-02-23T12:49:43.314Z,37.33
2023-02-23T12:52:26.985Z,30.63
2023-02-23T12:54:55.909Z,30.97
2023-02-23T12:58:25.864Z,34.97
2023-02-23T13:01:05.978Z,30.60
2023-02-23T13:03:50.651Z,31.03
2023-02-23T13:06:39.116Z,37.43
2023-02-23T13:10:16.180Z,29.73
2023-02-23T13:13:16.752Z,32.13
2023-02-23T13:16:10.511Z,34.90
2023-02-23T13:19:15.169Z,28.07
2023-02-23T13:21:53.850Z,32.50
2023-02-23T13:24:36.538Z,31.40
2023-02-23T13:27:23.423Z,35.67
2023-02-23T13:29:54.969Z,31.47
2023-02-23T13:32:32.230Z,33.10
2023-02-23T13:35:08.352Z,32.10
2023-02-23T13:38:08.209Z,32.83
2023-02-23T13:40:44.357Z,35.07
2023-02-23T13:43:49.189Z,34.00
2023-02-23T13:46:53.794Z,39.40
2023-02-23T13:49:47.123Z,31.50
2023-02-23T13:52:41.459Z,28.30
2023-02-23T13:55:32.628Z,33.33
2023-02-23T13:58:22.402Z,35.47
2023-02-23T14:01:43.612Z,31.10
2023-02-23T14:04:34.426Z,32.30
2023-02-23T14:07:11.480Z,34.10
2023-02-23T14:09:56.536Z,28.60
2023-02-23T14:13:06.312Z,37.07
2023-02-23T14:15:40.395Z,39.07
2023-02-23T14:18:26.316Z,35.73
2023-02-23T14:21:29.305Z,36.50
2023-02-23T14:24:19.335Z,36.37
2023-02-23T14:27:41.445Z,44.43
2023-02-23T14:30:19.810Z,39.00
2023-02-23T14:32:50.525Z,37.20
2023-02-23T14:35:33.760Z,34.90
2023-02-23T14:38:47.578Z,44.37
2023-02-23T14:41:28.281Z,35.00
2023-02-23T14:44:43.295Z,30.53
2023-02-23T14:47:20.698Z,33.97
2023-02-23T14:50:18.905Z,37.30
2023-02-23T14:52:47.505Z,38.73
2023-02-23T14:55:29.411Z,34.07
2023-02-23T14:57:58.917Z,47.00
2023-02-23T15:00:43.853Z,37.33
2023-02-23T15:03:13.848Z,37.37
2023-02-23T15:05:57.564Z,44.33
2023-02-23T15:08:30.046Z,41.77
2023-02-23T15:11:18.889Z,37.93
2023-02-23T15:13:52.178Z,39.83
2023-02-23T15:16:36.288Z,38.90
2023-02-23T15:19:05.441Z,47.97
2023-02-23T15:21:35.761Z,45.93
2023-02-23T15:24:22.924Z,43.83
2023-02-23T15:26:52.042Z,38.83
2023-02-23T15:29:30.594Z,39.10
2023-02-23T15:32:24.752Z,45.17
2023-02-23T15:34:55.884Z,40.87
2023-02-23T15:40:23.842Z,38.80
2023-02-23T15:43:00.597Z,48.13
2023-02-23T15:45:48.813Z,47.13
2023-02-23T15:48:27.883Z,45.97
2023-02-23T15:50:57.835Z,43.30
2023-02-23T15:53:41.025Z,44.03
2023-02-23T15:56:20.186Z,48.80
2023-02-23T15:58:57.280Z,49.93
2023-02-23T16:01:30.354Z,52.03
2023-02-23T16:04:08.325Z,47.53
2023-02-23T16:06:53.216Z,53.87
2023-02-23T16:09:21.674Z,60.67
2023-02-23T16:12:20.534Z,52.97
2023-02-23T16:15:03.343Z,55.77
2023-02-23T16:17:52.183Z,48.43
2023-02-23T16:20:42.558Z,52.07
2023-02-23T16:23:59.386Z,53.20
2023-02-23T16:26:48.003Z,56.93
2023-02-23T16:29:44.408Z,52.13
2023-02-23T16:32:20.831Z,52.67
2023-02-23T16:35:01.754Z,57.00
2023-02-23T16:37:29.930Z,53.30
2023-02-23T16:39:57.896Z,58.87
2023-02-23T16:42:33.563Z,58.10
2023-02-23T16:45:02.163Z,55.73
2023-02-23T16:47:48.238Z,63.80
2023-02-23T16:50:24.301Z,59.43
2023-02-23T16:52:53.630Z,69.50
2023-02-23T16:55:28.723Z,74.93
2023-02-23T16:58:07.821Z,69.30
2023-02-23T17:00:35.860Z,81.30
2023-02-23T17:03:06.667Z,72.60
2023-02-23T17:05:34.605Z,72.77
2023-02-23T17:08:02.858Z,82.53
2023-02-23T17:10:34.841Z,87.17
2023-02-23T17:13:18.791Z,86.00
2023-02-23T17:15:51.864Z,94.10
2023-02-23T17:20:55.303Z,97.43
2023-02-23T17:23:29.700Z,104.33
2023-02-23T17:25:58.354Z,108.87
2023-02-23T17:28:26.267Z,120.50
2023-02-23T17:30:54.298Z,113.70
2023-02-23T17:33:26.989Z,116.57
2023-02-23T17:35:55.238Z,121.00
2023-02-23T17:38:23.154Z,131.17
2023-02-23T17:40:51.001Z,140.43
2023-02-23T17:43:21.557Z,149.87
2023-02-23T17:45:50.579Z,149.37
2023-02-23T17:48:18.650Z,141.87
2023-02-23T17:50:46.488Z,136.83
2023-02-23T17:53:14.398Z,146.00
2023-02-23T17:55:42.368Z,143.27
2023-02-23T17:58:10.795Z,159.00
2023-02-23T18:00:39.742Z,166.53
2023-02-23T18:03:07.694Z,163.90
2023-02-23T18:05:35.920Z,183.03
2023-02-23T18:08:03.778Z,161.73
2023-02-23T18:10:31.636Z,142.20
2023-02-23T18:12:59.455Z,160.90
2023-02-23T18:15:27.439Z,161.37
2023-02-23T18:17:57.437Z,155.70
2023-02-23T18:20:26.164Z,172.50
2023-02-23T18:22:54.086Z,173.93
2023-02-23T18:25:31.108Z,182.43
2023-02-23T18:27:59.696Z,183.10
2023-02-23T18:30:27.622Z,163.00
2023-02-23T18:33:00.525Z,175.17
2023-02-23T18:35:33.196Z,166.13
2023-02-23T18:38:01.493Z,177.13
2023-02-23T18:40:29.492Z,180.03
2023-02-23T18:42:58.966Z,178.50
2023-02-23T18:45:27.658Z,206.50
2023-02-23T18:47:56.307Z,193.40
2023-02-23T18:50:26.260Z,149.07
2023-02-23T18:52:56.583Z,181.73
2023-02-23T18:55:24.756Z,196.73
2023-02-23T18:57:53.081Z,192.00
2023-02-23T19:00:21.740Z,168.30
2023-02-23T19:02:49.769Z,189.20
2023-02-23T19:05:20.760Z,132.67
2023-02-23T19:07:49.556Z,178.57
2023-02-23T19:10:17.428Z,163.80
2023-02-23T19:12:45.322Z,156.37
2023-02-23T19:15:13.397Z,156.17
2023-02-23T19:17:41.394Z,140.10
2023-02-23T19:20:13.726Z,157.20
2023-02-23T19:22:42.799Z,150.67
2023-02-23T19:25:14.193Z,170.37
2023-02-23T19:27:42.877Z,139.87
2023-02-23T19:30:12.406Z,149.27
2023-02-23T19:32:40.614Z,167.90
2023-02-23T19:35:14.772Z,166.50
2023-02-23T19:37:52.701Z,163.33
2023-02-23T19:40:23.867Z,152.60
2023-02-23T19:42:52.965Z,158.90
2023-02-23T19:45:21.799Z,119.53
2023-02-23T19:47:53.240Z,124.60
2023-02-23T19:50:21.560Z,151.23
2023-02-23T19:52:49.923Z,145.00
2023-02-23T19:55:20.178Z,111.37
2023-02-23T19:57:48.168Z,110.57
2023-02-23T20:00:16.798Z,84.50
2023-02-23T20:02:44.713Z,80.93
2023-02-23T20:05:16.269Z,85.10
2023-02-23T20:07:44.601Z,79.83
2023-02-23T20:10:16.108Z,73.93
2023-02-23T20:12:44.508Z,70.97
2023-02-23T20:15:14.817Z,78.43
2023-02-23T20:17:42.785Z,82.57
2023-02-23T20:20:11.858Z,70.67
2023-02-23T20:22:43.178Z,72.43
2023-02-23T20:25:16.356Z,67.33
2023-02-23T20:27:44.824Z,68.60
2023-02-23T20:30:13.700Z,80.37
2023-02-23T20:32:41.707Z,90.47
2023-02-23T20:35:12.890Z,87.43
2023-02-23T20:37:42.117Z,81.40
2023-02-23T20:40:17.471Z,94.07
2023-02-23T20:42:48.313Z,100.07
2023-02-23T20:45:21.750Z,85.03
2023-02-23T20:47:53.560Z,103.20
2023-02-23T20:50:33.969Z,92.60
2023-02-23T20:53:05.410Z,100.63
2023-02-23T20:55:33.457Z,101.10
2023-02-23T20:58:01.633Z,102.83
2023-02-23T21:00:32.083Z,122.50
2023-02-23T21:03:02.680Z,110.97
2023-02-23T21:05:40.408Z,122.43
2023-02-23T21:08:10.486Z,112.20
2023-02-23T21:10:40.118Z,130.50
2023-02-23T21:13:12.321Z,129.83
2023-02-23T21:15:42.551Z,126.33
2023-02-23T21:18:11.083Z,132.07
2023-02-23T21:20:40.091Z,135.90
2023-02-23T21:23:08.015Z,134.93
2023-02-23T21:25:35.975Z,161.00
2023-02-23T21:28:03.880Z,135.73
2023-02-23T21:30:31.875Z,171.73
2023-02-23T21:33:00.193Z,163.83
2023-02-23T21:35:28.240Z,163.00
2023-02-23T21:37:56.928Z,144.93
2023-02-23T21:40:24.919Z,158.30
2023-02-23T21:42:53.242Z,136.57
2023-02-23T21:45:21.404Z,141.53
2023-02-23T21:47:49.639Z,147.43
2023-02-23T21:50:19.665Z,144.13
2023-02-23T21:52:48.716Z,135.93
2023-02-23T21:55:21.916Z,144.50
2023-02-23T21:57:51.759Z,161.00
2023-02-23T22:00:21.523Z,155.10
2023-02-23T22:02:50.697Z,160.33
2023-02-23T22:05:19.677Z,161.57
2023-02-23T22:07:51.435Z,173.70
2023-02-23T22:10:24.843Z,157.27
2023-02-23T22:12:56.746Z,172.30
2023-02-23T22:15:27.871Z,180.03
2023-02-23T22:17:56.576Z,181.27
2023-02-23T22:20:25.960Z,179.83
2023-02-23T22:22:53.961Z,170.53
2023-02-23T22:25:22.030Z,165.90
2023-02-23T22:27:50.007Z,160.63
2023-02-23T22:30:20.430Z,173.13
2023-02-23T22:32:48.659Z,172.80
2023-02-23T22:35:16.868Z,164.90
2023-02-23T22:37:47.386Z,154.43
2023-02-23T22:40:18.209Z,153.50
2023-02-23T22:42:48.404Z,162.57
2023-02-23T22:45:17.959Z,157.07
2023-02-23T22:47:45.992Z,162.47
2023-02-23T22:50:17.813Z,158.70
2023-02-23T22:52:47.011Z,156.53
2023-02-23T22:55:14.984Z,154.83
2023-02-23T22:57:43.066Z,151.10
2023-02-23T23:00:20.737Z,161.90
2023-02-23T23:02:48.920Z,138.83
2023-02-23T23:05:17.791Z,146.30
2023-02-23T23:07:48.678Z,150.30
2023-02-23T23:10:18.740Z,155.77
2023-02-23T23:12:46.965Z,149.87
2023-02-23T23:15:17.023Z,146.50
2023-02-23T23:17:48.347Z,156.13
2023-02-23T23:20:25.536Z,148.60
2023-02-23T23:22:56.992Z,150.77
2023-02-23T23:25:25.092Z,126.50
2023-02-23T23:27:53.006Z,142.97
2023-02-23T23:30:21.276Z,135.07
2023-02-23T23:32:50.346Z,141.23
2023-02-23T23:35:21.789Z,115.77
2023-02-23T23:37:52.878Z,130.40
2023-02-23T23:40:24.256Z,120.20
2023-02-23T23:42:52.561Z,112.60
2023-02-23T23:45:24.215Z,118.53
2023-02-23T23:47:52.353Z,112.10
2023-02-23T23:50:26.414Z,112.57
2023-02-23T23:52:54.438Z,116.37
2023-02-23T23:55:22.308Z,114.30
2023-02-23T23:57:50.145Z,114.03
